createdAt,value
2022-10-06T00:00:53.414Z,76.51
2022-10-06T00:03:24.115Z,77.13
2022-10-06T00:05:51.618Z,77.67
2022-10-06T00:08:19.553Z,77.52
2022-10-06T00:10:46.738Z,77.31
2022-10-06T00:13:13.755Z,77.48
2022-10-06T00:15:40.757Z,77.00
2022-10-06T00:18:07.783Z,77.99
2022-10-06T00:20:34.733Z,77.29
2022-10-06T00:23:01.639Z,77.35
2022-10-06T00:25:28.624Z,77.37
2022-10-06T00:27:56.021Z,77.96
2022-10-06T00:30:26.235Z,78.01
2022-10-06T00:33:02.085Z,78.38
2022-10-06T00:35:33.589Z,77.99
2022-10-06T00:38:01.519Z,78.18
2022-10-06T00:40:29.150Z,77.88
2022-10-06T00:43:01.702Z,77.39
2022-10-06T00:45:45.648Z,77.86
2022-10-06T00:48:27.862Z,77.80
2022-10-06T00:50:58.338Z,77.88
2022-10-06T00:53:28.558Z,77.83
2022-10-06T00:55:55.705Z,77.87
2022-10-06T00:58:22.671Z,77.94
2022-10-06T01:00:55.317Z,77.81
2022-10-06T01:03:35.051Z,77.72
2022-10-06T01:06:03.981Z,77.97
2022-10-06T01:08:32.778Z,77.29
2022-10-06T01:11:00.295Z,78.08
2022-10-06T01:13:28.387Z,77.86
2022-10-06T01:16:27.697Z,77.45
2022-10-06T01:18:56.282Z,78.04
2022-10-06T01:21:31.829Z,77.66
2022-10-06T01:23:58.983Z,77.41
2022-10-06T01:26:28.700Z,77.51
2022-10-06T01:28:56.398Z,78.21
2022-10-06T01:31:23.810Z,78.30
2022-10-06T01:33:55.429Z,78.55
2022-10-06T01:36:22.707Z,78.08
2022-10-06T01:38:49.632Z,78.25
2022-10-06T01:41:16.804Z,78.60
2022-10-06T01:43:43.652Z,78.36
2022-10-06T01:46:10.689Z,78.24
2022-10-06T01:48:37.810Z,78.11
2022-10-06T01:51:04.752Z,78.42
2022-10-06T01:53:31.727Z,78.02
2022-10-06T01:55:59.849Z,78.31
2022-10-06T01:58:27.280Z,78.51
2022-10-06T02:00:54.603Z,78.34
2022-10-06T02:03:21.721Z,78.41
2022-10-06T02:05:48.691Z,79.00
2022-10-06T02:08:15.664Z,78.58
2022-10-06T02:10:43.306Z,78.55
2022-10-06T02:13:10.769Z,77.86
2022-10-06T02:15:37.860Z,78.90
2022-10-06T02:18:04.813Z,78.59
2022-10-06T02:20:32.170Z,78.63
2022-10-06T02:23:02.217Z,78.92
2022-10-06T02:25:29.171Z,78.91
2022-10-06T02:27:56.115Z,78.69
2022-10-06T02:30:23.375Z,79.08
2022-10-06T02:32:50.374Z,78.68
2022-10-06T02:35:17.817Z,78.94
2022-10-06T02:37:44.801Z,79.02
2022-10-06T02:40:11.780Z,78.68
2022-10-06T02:42:39.202Z,79.25
2022-10-06T02:45:07.297Z,78.71
2022-10-06T02:47:35.973Z,78.73
2022-10-06T02:50:05.697Z,79.62
2022-10-06T02:52:34.711Z,79.29
2022-10-06T02:55:06.747Z,79.48
2022-10-06T02:57:33.731Z,79.39
2022-10-06T03:00:00.757Z,79.60
2022-10-06T03:02:30.986Z,79.23
2022-10-06T03:04:58.191Z,78.61
2022-10-06T03:07:25.337Z,79.26
2022-10-06T03:09:52.342Z,79.48
2022-10-06T03:12:19.245Z,78.86
2022-10-06T03:14:46.153Z,79.45
2022-10-06T03:17:13.104Z,78.08
2022-10-06T03:19:40.478Z,78.52
2022-10-06T03:22:07.614Z,78.59
2022-10-06T03:24:35.281Z,79.15
2022-10-06T03:27:02.231Z,79.14
2022-10-06T03:29:31.353Z,79.55
2022-10-06T03:31:59.071Z,79.41
2022-10-06T03:34:26.171Z,79.03
2022-10-06T03:36:53.341Z,78.60
2022-10-06T03:39:20.317Z,79.15
2022-10-06T03:41:47.475Z,79.39
2022-10-06T03:44:14.654Z,79.06
2022-10-06T03:46:41.780Z,79.41
2022-10-06T03:49:09.257Z,79.03
2022-10-06T03:51:39.114Z,79.33
2022-10-06T03:54:08.142Z,79.17
2022-10-06T03:56:38.085Z,79.12
2022-10-06T03:59:10.590Z,79.12
2022-10-06T04:01:40.215Z,79.36
2022-10-06T04:04:07.981Z,79.39
2022-10-06T04:06:37.420Z,79.35
2022-10-06T04:09:08.484Z,78.93
2022-10-06T04:11:39.855Z,79.53
2022-10-06T04:14:11.897Z,79.11
2022-10-06T04:16:44.759Z,79.72
2022-10-06T04:19:13.574Z,79.54
2022-10-06T04:21:42.740Z,79.71
2022-10-06T04:24:11.170Z,79.27
2022-10-06T04:26:40.941Z,79.39
2022-10-06T04:29:08.351Z,79.52
2022-10-06T04:31:37.695Z,79.66
2022-10-06T04:34:06.640Z,79.91
2022-10-06T04:36:36.932Z,78.98
2022-10-06T04:39:05.506Z,80.04
2022-10-06T04:41:35.031Z,79.99
2022-10-06T04:44:03.660Z,79.77
2022-10-06T04:46:47.160Z,79.98
2022-10-06T04:49:19.956Z,79.28
2022-10-06T04:51:49.927Z,79.66
2022-10-06T04:54:17.708Z,78.73
2022-10-06T04:56:44.667Z,79.05
2022-10-06T04:59:11.651Z,79.45
2022-10-06T05:01:38.831Z,79.08
2022-10-06T05:04:06.695Z,79.39
2022-10-06T05:06:36.515Z,79.87
2022-10-06T05:09:09.319Z,79.85
2022-10-06T05:11:36.542Z,79.89
2022-10-06T05:14:03.535Z,79.86
2022-10-06T05:16:31.787Z,79.63
2022-10-06T05:19:09.102Z,79.36
2022-10-06T05:21:36.449Z,79.60
2022-10-06T05:24:03.915Z,79.60
2022-10-06T05:26:33.393Z,79.40
2022-10-06T05:29:00.849Z,78.98
2022-10-06T05:31:33.195Z,79.31
2022-10-06T05:34:00.310Z,79.25
2022-10-06T05:36:30.126Z,79.13
2022-10-06T05:38:58.043Z,79.17
2022-10-06T05:41:29.056Z,78.70
2022-10-06T05:43:56.754Z,78.88
2022-10-06T05:46:28.800Z,78.73
2022-10-06T05:49:03.841Z,78.37
2022-10-06T05:51:32.899Z,78.36
2022-10-06T05:54:00.855Z,77.98
2022-10-06T05:56:28.887Z,78.17
2022-10-06T05:58:57.765Z,78.08
2022-10-06T06:01:33.597Z,77.93
2022-10-06T06:04:05.689Z,77.88
2022-10-06T06:06:40.865Z,76.92
2022-10-06T06:09:18.977Z,78.12
2022-10-06T06:11:50.815Z,77.80
2022-10-06T06:14:20.137Z,77.60
2022-10-06T06:16:47.266Z,77.31
2022-10-06T06:19:14.921Z,77.19
2022-10-06T06:21:42.058Z,76.94
2022-10-06T06:24:09.097Z,77.14
2022-10-06T06:26:37.685Z,76.87
2022-10-06T06:29:06.565Z,76.44
2022-10-06T06:31:35.885Z,76.31
2022-10-06T06:34:05.141Z,76.14
2022-10-06T06:36:37.443Z,76.23
2022-10-06T06:39:07.070Z,75.40
2022-10-06T06:41:38.135Z,75.68
2022-10-06T06:44:07.658Z,75.18
2022-10-06T06:49:22.913Z,74.30
2022-10-06T06:51:50.260Z,74.15
2022-10-06T06:54:17.417Z,74.13
2022-10-06T06:56:45.875Z,73.95
2022-10-06T06:59:13.560Z,73.16
2022-10-06T07:01:46.102Z,72.73
2022-10-06T07:04:15.573Z,72.13
2022-10-06T07:06:50.813Z,72.27
2022-10-06T07:09:17.754Z,71.41
2022-10-06T07:11:44.674Z,71.36
2022-10-06T07:14:12.953Z,71.17
2022-10-06T07:16:58.732Z,71.70
2022-10-06T07:19:57.969Z,71.31
2022-10-06T07:22:45.526Z,71.16
2022-10-06T07:25:25.396Z,71.24
2022-10-06T07:27:53.136Z,71.08
2022-10-06T07:30:30.610Z,71.04
2022-10-06T07:32:57.610Z,71.21
2022-10-06T07:35:26.042Z,70.76
2022-10-06T07:37:55.745Z,71.10
2022-10-06T07:40:23.085Z,70.51
2022-10-06T07:42:52.469Z,70.96
2022-10-06T07:45:39.460Z,71.00
2022-10-06T07:48:10.998Z,71.44
2022-10-06T07:50:40.232Z,70.78
2022-10-06T07:53:10.322Z,70.96
2022-10-06T07:55:40.232Z,70.32
2022-10-06T07:58:25.473Z,70.03
2022-10-06T08:00:53.467Z,69.55
2022-10-06T08:03:21.301Z,69.59
2022-10-06T08:05:50.288Z,69.12
2022-10-06T08:08:17.499Z,69.87
2022-10-06T08:10:52.338Z,69.27
2022-10-06T08:13:19.273Z,69.10
2022-10-06T08:15:46.344Z,69.22
2022-10-06T08:18:33.727Z,68.75
2022-10-06T08:21:00.731Z,68.64
2022-10-06T08:23:27.711Z,68.80
2022-10-06T08:25:56.578Z,68.88
2022-10-06T08:28:24.721Z,68.93
2022-10-06T08:30:52.740Z,69.52
2022-10-06T08:33:21.442Z,69.64
2022-10-06T08:35:48.725Z,69.07
2022-10-06T08:38:15.694Z,69.40
2022-10-06T08:40:45.121Z,69.05
2022-10-06T08:43:19.267Z,68.37
2022-10-06T08:45:48.050Z,68.00
2022-10-06T08:48:20.228Z,68.05
2022-10-06T08:50:58.831Z,68.39
2022-10-06T08:54:18.275Z,67.29
2022-10-06T08:57:00.549Z,66.72
2022-10-06T08:59:27.514Z,66.44
2022-10-06T09:01:55.075Z,65.87
2022-10-06T09:04:29.657Z,65.77
2022-10-06T09:07:00.321Z,65.97
2022-10-06T09:09:36.570Z,66.24
2022-10-06T09:12:30.875Z,65.45
2022-10-06T09:15:35.388Z,65.98
2022-10-06T09:18:13.676Z,65.61
2022-10-06T09:20:47.938Z,64.67
2022-10-06T09:23:17.432Z,64.42
2022-10-06T09:25:45.150Z,63.56
2022-10-06T09:28:16.132Z,64.05
2022-10-06T09:30:43.812Z,62.15
2022-10-06T09:33:21.214Z,63.74
2022-10-06T09:36:11.598Z,62.85
2022-10-06T09:38:59.807Z,62.51
2022-10-06T09:41:37.916Z,63.53
2022-10-06T09:44:07.433Z,63.39
2022-10-06T09:46:42.122Z,62.54
2022-10-06T09:49:27.030Z,62.37
2022-10-06T09:52:15.427Z,62.45
2022-10-06T09:54:44.074Z,62.42
2022-10-06T09:57:18.002Z,61.51
2022-10-06T09:59:47.233Z,61.26
2022-10-06T10:02:37.421Z,61.42
2022-10-06T10:05:07.772Z,63.09
2022-10-06T10:07:36.682Z,62.24
2022-10-06T10:10:18.951Z,61.59
2022-10-06T10:12:52.937Z,61.44
2022-10-06T10:15:19.888Z,61.82
2022-10-06T10:17:53.582Z,59.47
2022-10-06T10:20:28.521Z,60.89
2022-10-06T10:22:58.719Z,61.09
2022-10-06T10:25:44.780Z,60.98
2022-10-06T10:28:15.613Z,61.55
2022-10-06T10:31:07.531Z,61.76
2022-10-06T10:33:54.225Z,60.91
2022-10-06T10:36:40.414Z,61.79
2022-10-06T10:39:40.246Z,60.68
2022-10-06T10:42:21.222Z,60.86
2022-10-06T10:45:01.090Z,60.57
2022-10-06T10:47:34.793Z,60.10
2022-10-06T10:50:13.205Z,60.22
2022-10-06T10:52:44.634Z,59.68
2022-10-06T10:55:18.777Z,59.72
2022-10-06T10:57:47.281Z,59.20
2022-10-06T11:00:22.195Z,59.78
2022-10-06T11:02:55.543Z,59.92
2022-10-06T11:05:29.062Z,59.30
2022-10-06T11:08:43.397Z,59.49
2022-10-06T11:11:20.208Z,60.28
2022-10-06T11:13:54.603Z,59.88
2022-10-06T11:16:46.461Z,60.53
2022-10-06T11:19:28.401Z,61.63
2022-10-06T11:22:08.575Z,61.49
2022-10-06T11:24:41.554Z,62.44
2022-10-06T11:27:45.861Z,62.34
2022-10-06T11:30:19.926Z,63.26
2022-10-06T11:33:09.374Z,63.05
2022-10-06T11:35:42.078Z,63.10
2022-10-06T11:38:42.973Z,63.98
2022-10-06T11:41:23.728Z,64.26
2022-10-06T11:44:32.977Z,63.57
2022-10-06T11:47:15.051Z,63.18
2022-10-06T11:49:53.585Z,62.97
2022-10-06T11:52:20.497Z,62.72
2022-10-06T11:55:17.870Z,63.20
2022-10-06T11:58:23.402Z,62.27
2022-10-06T12:00:54.968Z,63.14
2022-10-06T12:03:33.437Z,63.01
2022-10-06T12:06:00.537Z,61.83
2022-10-06T12:08:39.493Z,61.08
2022-10-06T12:11:40.441Z,61.06
2022-10-06T12:17:19.729Z,60.58
2022-10-06T12:19:58.264Z,60.72
2022-10-06T12:22:37.590Z,60.53
2022-10-06T12:25:28.346Z,60.59
2022-10-06T12:28:29.186Z,60.23
2022-10-06T12:31:18.253Z,60.49
2022-10-06T12:33:46.005Z,60.43
2022-10-06T12:36:18.401Z,59.78
2022-10-06T12:39:02.827Z,59.88
2022-10-06T12:41:59.216Z,60.33
2022-10-06T12:44:32.059Z,61.30
2022-10-06T12:47:05.034Z,59.34
2022-10-06T12:49:39.352Z,58.82
2022-10-06T12:52:14.538Z,58.76
2022-10-06T12:54:59.007Z,56.29
2022-10-06T12:57:30.913Z,55.23
2022-10-06T12:59:58.540Z,54.56
2022-10-06T13:02:29.237Z,53.80
2022-10-06T13:05:00.746Z,54.60
2022-10-06T13:07:34.228Z,54.93
2022-10-06T13:10:19.707Z,55.59
2022-10-06T13:12:50.459Z,55.38
2022-10-06T13:15:20.524Z,55.08
2022-10-06T13:17:56.815Z,55.20
2022-10-06T13:20:32.746Z,56.18
2022-10-06T13:23:10.219Z,56.40
2022-10-06T13:25:46.661Z,57.37
2022-10-06T13:28:28.206Z,56.76
2022-10-06T13:31:02.964Z,56.79
2022-10-06T13:33:35.554Z,56.23
2022-10-06T13:36:03.128Z,57.08
2022-10-06T13:38:35.293Z,57.72
2022-10-06T13:41:06.908Z,57.07
2022-10-06T13:43:40.854Z,57.15
2022-10-06T13:46:14.331Z,57.38
2022-10-06T13:48:51.625Z,57.38
2022-10-06T13:51:23.250Z,58.10
2022-10-06T13:53:50.676Z,58.02
2022-10-06T13:56:36.379Z,58.33
2022-10-06T13:59:23.472Z,58.19
2022-10-06T14:01:50.656Z,58.82
2022-10-06T14:04:19.382Z,59.06
2022-10-06T14:07:06.593Z,59.67
2022-10-06T14:09:36.637Z,59.75
2022-10-06T14:12:16.529Z,59.78
2022-10-06T14:14:53.367Z,59.63
2022-10-06T14:17:23.808Z,59.68
2022-10-06T14:19:51.460Z,59.56
2022-10-06T14:22:38.640Z,59.25
2022-10-06T14:25:12.459Z,59.16
2022-10-06T14:27:39.396Z,57.78
2022-10-06T14:30:07.094Z,56.59
2022-10-06T14:32:34.013Z,56.47
2022-10-06T14:35:01.816Z,56.11
2022-10-06T14:37:28.735Z,55.50
2022-10-06T14:39:56.665Z,51.39
2022-10-06T14:42:24.699Z,51.80
2022-10-06T14:44:51.650Z,50.50
2022-10-06T14:47:18.675Z,50.60
2022-10-06T14:49:45.672Z,51.06
2022-10-06T14:52:13.087Z,50.94
2022-10-06T14:54:40.187Z,51.51
2022-10-06T14:57:07.148Z,51.37
2022-10-06T14:59:34.178Z,51.42
2022-10-06T15:02:01.375Z,51.58
2022-10-06T15:04:28.562Z,52.63
2022-10-06T15:07:13.836Z,52.80
2022-10-06T15:09:40.766Z,52.72
2022-10-06T15:12:07.838Z,53.31
2022-10-06T15:14:40.059Z,53.16
2022-10-06T15:17:07.149Z,52.96
2022-10-06T15:19:34.604Z,53.60
2022-10-06T15:22:01.678Z,53.46
2022-10-06T15:24:28.637Z,53.35
2022-10-06T15:27:14.411Z,54.06
2022-10-06T15:29:41.304Z,54.29
2022-10-06T15:32:08.709Z,54.74
2022-10-06T15:34:38.058Z,55.30
2022-10-06T15:37:05.467Z,54.80
2022-10-06T15:39:36.844Z,55.70
2022-10-06T15:42:04.540Z,55.70
2022-10-06T15:44:33.801Z,55.69
2022-10-06T15:47:01.304Z,55.87
2022-10-06T15:49:38.312Z,56.19
2022-10-06T15:52:05.731Z,57.59
2022-10-06T15:54:37.919Z,57.81
2022-10-06T15:57:08.938Z,57.29
2022-10-06T15:59:36.912Z,58.22
2022-10-06T16:02:16.222Z,59.00
2022-10-06T16:04:44.374Z,60.03
2022-10-06T16:07:13.092Z,59.46
2022-10-06T16:09:43.597Z,59.69
2022-10-06T16:12:11.732Z,60.32
2022-10-06T16:14:38.917Z,60.88
2022-10-06T16:17:06.854Z,61.67
2022-10-06T16:19:37.188Z,61.61
2022-10-06T16:22:05.679Z,63.18
2022-10-06T16:24:33.015Z,63.93
2022-10-06T16:27:00.483Z,64.13
2022-10-06T16:29:28.524Z,63.71
2022-10-06T16:31:56.180Z,64.56
2022-10-06T16:34:23.757Z,64.27
2022-10-06T16:36:50.695Z,64.87
2022-10-06T16:39:20.650Z,65.04
2022-10-06T16:41:48.077Z,65.11
2022-10-06T16:44:15.561Z,65.99
2022-10-06T16:46:43.285Z,67.35
2022-10-06T16:49:10.554Z,66.86
2022-10-06T16:51:42.577Z,67.00
2022-10-06T16:54:11.410Z,67.62
2022-10-06T16:56:41.363Z,67.27
2022-10-06T16:59:19.632Z,67.86
2022-10-06T17:01:48.103Z,68.10
2022-10-06T17:04:18.196Z,67.83
2022-10-06T17:06:46.370Z,68.16
2022-10-06T17:09:18.760Z,67.82
2022-10-06T17:11:48.601Z,68.13
2022-10-06T17:14:15.986Z,68.08
2022-10-06T17:16:44.509Z,68.94
2022-10-06T17:19:13.909Z,68.94
2022-10-06T17:21:46.269Z,68.72
2022-10-06T17:24:14.324Z,68.80
2022-10-06T17:26:43.742Z,69.77
2022-10-06T17:29:19.655Z,70.26
2022-10-06T17:31:48.645Z,69.99
2022-10-06T17:34:21.125Z,70.30
2022-10-06T17:36:51.532Z,70.42
2022-10-06T17:39:21.282Z,69.91
2022-10-06T17:41:50.568Z,70.53
2022-10-06T17:44:23.921Z,70.67
2022-10-06T17:46:54.007Z,70.67
2022-10-06T17:49:22.373Z,70.91
2022-10-06T17:51:51.099Z,71.08
2022-10-06T17:54:21.036Z,70.79
2022-10-06T17:56:50.906Z,70.61
2022-10-06T17:59:29.177Z,71.87
2022-10-06T18:01:57.887Z,71.99
2022-10-06T18:04:25.363Z,70.97
2022-10-06T18:06:54.421Z,71.76
2022-10-06T18:09:22.147Z,71.34
2022-10-06T18:11:54.978Z,71.38
2022-10-06T18:14:24.628Z,71.15
2022-10-06T18:16:58.028Z,72.24
2022-10-06T18:19:30.573Z,72.11
2022-10-06T18:22:00.617Z,72.53
2022-10-06T18:24:29.740Z,72.15
2022-10-06T18:26:59.062Z,71.93
2022-10-06T18:29:30.625Z,72.14
2022-10-06T18:32:15.207Z,71.97
2022-10-06T18:37:31.566Z,72.17
2022-10-06T18:39:58.683Z,71.75
2022-10-06T18:42:25.843Z,72.83
2022-10-06T18:45:11.328Z,72.95
2022-10-06T18:47:57.007Z,72.57
2022-10-06T18:50:24.068Z,72.42
2022-10-06T18:52:50.889Z,72.43
2022-10-06T18:55:17.788Z,72.48
2022-10-06T18:57:45.556Z,72.14
2022-10-06T19:00:13.202Z,72.55
2022-10-06T19:02:40.767Z,72.85
2022-10-06T19:05:09.205Z,73.60
2022-10-06T19:07:36.125Z,73.26
2022-10-06T19:10:03.068Z,72.98
2022-10-06T19:12:30.009Z,72.92
2022-10-06T19:14:58.180Z,73.06
2022-10-06T19:17:25.115Z,72.06
2022-10-06T19:19:55.616Z,73.43
2022-10-06T19:22:24.917Z,73.05
2022-10-06T19:24:52.562Z,73.52
2022-10-06T19:27:24.508Z,73.60
2022-10-06T19:29:56.941Z,73.33
2022-10-06T19:32:27.473Z,73.33
2022-10-06T19:34:59.171Z,73.50
2022-10-06T19:37:30.802Z,73.38
2022-10-06T19:39:57.946Z,73.46
2022-10-06T19:42:43.951Z,73.31
2022-10-06T19:45:12.397Z,73.07
2022-10-06T19:47:40.371Z,72.69
2022-10-06T19:50:12.080Z,73.90
2022-10-06T19:52:40.921Z,73.51
2022-10-06T19:55:08.101Z,73.95
2022-10-06T19:57:35.100Z,72.91
2022-10-06T20:00:02.325Z,73.37
2022-10-06T20:02:29.865Z,72.96
2022-10-06T20:04:57.293Z,73.36
2022-10-06T20:07:28.023Z,73.35
2022-10-06T20:09:55.119Z,73.87
2022-10-06T20:12:25.047Z,73.30
2022-10-06T20:14:53.971Z,74.11
2022-10-06T20:17:21.693Z,73.59
2022-10-06T20:19:48.756Z,73.81
2022-10-06T20:22:15.877Z,73.78
2022-10-06T20:24:45.917Z,73.98
2022-10-06T20:27:12.877Z,73.34
2022-10-06T20:29:39.889Z,73.12
2022-10-06T20:32:06.884Z,74.22
2022-10-06T20:34:34.145Z,73.78
2022-10-06T20:37:03.264Z,73.74
2022-10-06T20:39:50.769Z,73.84
2022-10-06T20:42:20.028Z,73.28
2022-10-06T20:44:47.319Z,74.09
2022-10-06T20:47:14.832Z,73.53
2022-10-06T20:49:44.850Z,73.67
2022-10-06T20:52:14.870Z,73.48
2022-10-06T20:54:42.607Z,73.49
2022-10-06T20:57:09.903Z,73.86
2022-10-06T20:59:37.850Z,73.80
2022-10-06T21:02:06.474Z,73.81
2022-10-06T21:04:34.241Z,73.98
2022-10-06T21:07:04.222Z,73.82
2022-10-06T21:09:31.365Z,73.79
2022-10-06T21:11:58.557Z,73.25
2022-10-06T21:14:25.781Z,73.72
2022-10-06T21:16:53.215Z,74.00
2022-10-06T21:19:20.632Z,73.68
2022-10-06T21:21:53.695Z,73.65
2022-10-06T21:24:21.457Z,74.05
2022-10-06T21:26:49.698Z,74.19
2022-10-06T21:29:16.750Z,73.74
2022-10-06T21:31:44.742Z,74.05
2022-10-06T21:34:14.632Z,73.83
2022-10-06T21:36:43.708Z,74.09
2022-10-06T21:39:12.241Z,74.35
2022-10-06T21:41:40.141Z,74.20
2022-10-06T21:44:11.162Z,74.07
2022-10-06T21:46:41.386Z,74.12
2022-10-06T21:49:16.478Z,74.18
2022-10-06T21:51:46.177Z,74.38
2022-10-06T21:54:14.038Z,74.07
2022-10-06T21:56:41.798Z,73.98
2022-10-06T21:59:10.023Z,73.73
2022-10-06T22:01:39.818Z,73.83
2022-10-06T22:04:07.340Z,73.64
2022-10-06T22:06:36.984Z,74.36
2022-10-06T22:09:06.245Z,73.96
2022-10-06T22:11:36.459Z,74.32
2022-10-06T22:14:06.760Z,75.01
2022-10-06T22:16:35.872Z,74.15
2022-10-06T22:19:06.025Z,74.14
2022-10-06T22:21:35.758Z,73.89
2022-10-06T22:24:05.588Z,74.44
2022-10-06T22:26:34.255Z,74.03
2022-10-06T22:29:01.467Z,73.84
2022-10-06T22:31:28.996Z,73.47
2022-10-06T22:33:58.321Z,73.97
2022-10-06T22:36:27.371Z,74.04
2022-10-06T22:38:59.517Z,74.11
2022-10-06T22:41:26.873Z,74.88
2022-10-06T22:43:57.957Z,74.06
2022-10-06T22:46:26.696Z,73.83
2022-10-06T22:48:54.415Z,73.80
2022-10-06T22:51:21.614Z,74.34
2022-10-06T22:53:58.252Z,73.92
2022-10-06T22:56:26.894Z,74.23
2022-10-06T22:58:55.750Z,74.53
2022-10-06T23:01:23.182Z,74.52
2022-10-06T23:03:50.129Z,74.30
2022-10-06T23:06:18.319Z,74.25
2022-10-06T23:08:45.577Z,73.69
2022-10-06T23:11:18.764Z,74.65
2022-10-06T23:13:46.524Z,74.65
2022-10-06T23:16:15.766Z,74.68
2022-10-06T23:18:44.931Z,74.39
2022-10-06T23:21:24.372Z,74.54
2022-10-06T23:23:58.769Z,74.05
2022-10-06T23:26:26.258Z,73.86
2022-10-06T23:28:57.773Z,73.19
2022-10-06T23:31:25.402Z,74.11
2022-10-06T23:33:53.713Z,74.02
2022-10-06T23:36:20.887Z,74.65
2022-10-06T23:38:48.130Z,73.92
2022-10-06T23:41:16.002Z,74.08
2022-10-06T23:43:43.296Z,74.09
2022-10-06T23:46:10.878Z,74.17
2022-10-06T23:48:38.185Z,73.85
2022-10-06T23:51:08.246Z,73.48
2022-10-06T23:53:36.003Z,73.96
2022-10-06T23:56:04.016Z,73.91
2022-10-06T23:58:32.303Z,75.06
